PWSweather.com
Personal Weather Stations
Station Observations
UISISLE1
Newport, Isle ofWight, ISLE OF WIGHT PO30 2JX

NewportIsle ofWight, ISLE OF WIGHT PO30 2JX

Lat: 50.72, Lon: -1.27

Elevation: 45

Station Type: Davis Vantage Pro Plus

http://www.isleofwightweather.co.uk

High Low Average
Temperature 77.5°F25.3°C 62.1°F16.7°C 68.2°F20.1°C
Dew Point 63.3°F17.4°C 55.1°F12.8°C 59.6°F15.3°C
Winds 8.2 mph 13.2 kmh Calm Calm 2.0 mph SE3.2 kmh SE
Wind Gusts 16.0 mph25.7 kmh -- 4.0 mph6.4 kmh
Humidity 87% 57% 75%
Pressure 30.00 in1015.9 mb 29.90 in1012.5 mb -
Precipitation 0.00 in0.0 mm - -
Hour Temp Dew Point Humidity Winds Wind Gusts Pressure Precip Precip Rate Daily Precip Total
12:00 AM 62.5°F16.9°C 55.5°F13.1°C 78% Calm Calm -- 30.00 in1015.9 mb - 0.00 in0.0 mm 0.00 in0.0 mm
12:15 AM 62.4°F16.9°C 55.4°F13.0°C 78% Calm Calm -- 30.00 in1015.9 mb - 0.00 in0.0 mm 0.00 in0.0 mm
12:30 AM 62.4°F16.9°C 55.4°F13.0°C 78% Calm Calm -- 30.00 in1015.9 mb - 0.00 in0.0 mm 0.00 in0.0 mm
12:45 AM 62.3°F16.8°C 55.4°F13.0°C 78% Calm Calm -- 30.00 in1015.9 mb - 0.00 in0.0 mm 0.00 in0.0 mm
01:00 AM 62.4°F16.9°C 55.8°F13.2°C 79% Calm Calm -- 29.99 in1015.6 mb - 0.00 in0.0 mm 0.00 in0.0 mm
01:15 AM 62.5°F16.9°C 55.9°F13.3°C 79% Calm Calm -- 29.99 in1015.6 mb - 0.00 in0.0 mm 0.00 in0.0 mm
01:30 AM 62.5°F16.9°C 56.2°F13.4°C 80% Calm Calm -- 29.98 in1015.2 mb - 0.00 in0.0 mm 0.00 in0.0 mm
01:45 AM 62.4°F16.9°C 56.1°F13.4°C 80% Calm Calm -- 29.98 in1015.2 mb - 0.00 in0.0 mm 0.00 in0.0 mm
02:00 AM 62.3°F16.8°C 56.0°F13.3°C 80% Calm Calm -- 29.97 in1014.9 mb - 0.00 in0.0 mm 0.00 in0.0 mm
02:15 AM 62.3°F16.8°C 56.7°F13.7°C 82% Calm Calm -- 29.97 in1014.9 mb - 0.00 in0.0 mm 0.00 in0.0 mm
02:30 AM 62.1°F16.7°C 56.6°F13.7°C 82% Calm Calm -- 29.97 in1014.9 mb - 0.00 in0.0 mm 0.00 in0.0 mm
02:45 AM 62.1°F16.7°C 56.9°F13.8°C 83% Calm Calm -- 29.96 in1014.6 mb - 0.00 in0.0 mm 0.00 in0.0 mm
03:00 AM 62.2°F16.8°C 57.3°F14.1°C 84% Calm Calm -- 29.96 in1014.6 mb - 0.00 in0.0 mm 0.00 in0.0 mm
03:15 AM 62.3°F16.8°C 57.7°F14.3°C 85% Calm Calm -- 29.96 in1014.6 mb - 0.00 in0.0 mm 0.00 in0.0 mm
03:30 AM 62.4°F16.9°C 58.2°F14.6°C 86% Calm Calm -- 29.96 in1014.6 mb - 0.00 in0.0 mm 0.00 in0.0 mm
03:45 AM 62.6°F17.0°C 58.4°F14.7°C 86% Calm Calm -- 29.96 in1014.6 mb - 0.00 in0.0 mm 0.00 in0.0 mm
04:00 AM 62.8°F17.1°C 58.9°F14.9°C 87% Calm Calm -- 29.95 in1014.2 mb - 0.00 in0.0 mm 0.00 in0.0 mm
04:15 AM 63.0°F17.2°C 59.1°F15.1°C 87% Calm Calm -- 29.95 in1014.2 mb - 0.00 in0.0 mm 0.00 in0.0 mm
04:30 AM 63.1°F17.3°C 59.2°F15.1°C 87% Calm Calm -- 29.95 in1014.2 mb - 0.00 in0.0 mm 0.00 in0.0 mm
04:45 AM 63.1°F17.3°C 58.8°F14.9°C 86% Calm Calm -- 29.95 in1014.2 mb - 0.00 in0.0 mm 0.00 in0.0 mm
05:00 AM 62.9°F17.2°C 58.3°F14.6°C 85% 0.8 mph NE1.3 kmh NE 2.0 mph3.2 kmh 29.94 in1013.9 mb - 0.00 in0.0 mm 0.00 in0.0 mm
05:15 AM 62.7°F17.1°C 57.1°F13.9°C 82% 2.3 mph ENE3.7 kmh ENE 6.2 mph10.0 kmh 29.94 in1013.9 mb - 0.00 in0.0 mm 0.00 in0.0 mm
05:30 AM 63.6°F17.6°C 55.5°F13.1°C 75% Calm Calm -- 29.94 in1013.9 mb - 0.00 in0.0 mm 0.00 in0.0 mm
05:45 AM 64.3°F17.9°C 55.1°F12.8°C 72% 0.9 mph NE1.4 kmh NE 3.0 mph4.8 kmh 29.94 in1013.9 mb - 0.00 in0.0 mm 0.00 in0.0 mm
06:00 AM 64.9°F18.3°C 55.3°F12.9°C 71% 0.3 mph ENE0.5 kmh ENE 1.0 mph1.6 kmh 29.95 in1014.2 mb - 0.00 in0.0 mm 0.00 in0.0 mm
06:15 AM 65.5°F18.6°C 55.8°F13.2°C 71% 1.0 mph NE1.6 kmh NE 4.0 mph6.4 kmh 29.94 in1013.9 mb - 0.00 in0.0 mm 0.00 in0.0 mm
06:30 AM 66.1°F18.9°C 56.0°F13.3°C 70% 0.2 mph NE0.3 kmh NE 5.0 mph8.0 kmh 29.94 in1013.9 mb - 0.00 in0.0 mm 0.00 in0.0 mm
06:45 AM 66.8°F19.3°C 56.3°F13.5°C 69% 0.9 mph ENE1.4 kmh ENE 5.0 mph8.0 kmh 29.94 in1013.9 mb - 0.00 in0.0 mm 0.00 in0.0 mm
07:00 AM 67.4°F19.7°C 56.9°F13.8°C 69% 3.5 mph E5.6 kmh E 7.2 mph11.6 kmh 29.94 in1013.9 mb - 0.00 in0.0 mm 0.00 in0.0 mm
07:15 AM 68.2°F20.1°C 57.6°F14.2°C 69% 3.6 mph ENE5.8 kmh ENE 6.2 mph10.0 kmh 29.94 in1013.9 mb - 0.00 in0.0 mm 0.00 in0.0 mm
07:30 AM 68.9°F20.5°C 59.1°F15.1°C 71% 1.8 mph E2.9 kmh E 5.0 mph8.0 kmh 29.94 in1013.9 mb - 0.00 in0.0 mm 0.00 in0.0 mm
07:45 AM 69.2°F20.7°C 59.8°F15.4°C 72% 3.6 mph E5.8 kmh E 7.0 mph11.3 kmh 29.94 in1013.9 mb - 0.00 in0.0 mm 0.00 in0.0 mm
08:00 AM 70.0°F21.1°C 61.0°F16.1°C 73% 3.3 mph ENE5.3 kmh ENE 6.0 mph9.7 kmh 29.94 in1013.9 mb - 0.00 in0.0 mm 0.00 in0.0 mm
08:15 AM 70.8°F21.6°C 62.1°F16.7°C 74% 4.0 mph NE6.4 kmh NE 8.0 mph12.9 kmh 29.94 in1013.9 mb - 0.00 in0.0 mm 0.00 in0.0 mm
08:30 AM 70.8°F21.6°C 61.3°F16.3°C 72% 1.9 mph E3.1 kmh E 5.0 mph8.0 kmh 29.94 in1013.9 mb - 0.00 in0.0 mm 0.00 in0.0 mm
08:45 AM 70.6°F21.4°C 61.1°F16.2°C 72% 4.4 mph ESE7.1 kmh ESE 6.0 mph9.7 kmh 29.95 in1014.2 mb - 0.00 in0.0 mm 0.00 in0.0 mm
09:00 AM 70.6°F21.4°C 61.2°F16.2°C 72% 4.1 mph E6.6 kmh E 8.0 mph12.9 kmh 29.94 in1013.9 mb - 0.00 in0.0 mm 0.00 in0.0 mm
09:15 AM 71.3°F21.8°C 62.2°F16.8°C 73% 3.3 mph ENE5.3 kmh ENE 6.0 mph9.7 kmh 29.94 in1013.9 mb - 0.00 in0.0 mm 0.00 in0.0 mm
09:30 AM 72.5°F22.5°C 62.6°F17.0°C 71% 3.3 mph E5.3 kmh E 6.0 mph9.7 kmh 29.94 in1013.9 mb - 0.00 in0.0 mm 0.00 in0.0 mm
09:45 AM 74.4°F23.6°C 63.1°F17.3°C 68% 3.6 mph ENE5.8 kmh ENE 10.0 mph16.1 kmh 29.94 in1013.9 mb - 0.00 in0.0 mm 0.00 in0.0 mm
10:00 AM 75.5°F24.2°C 63.3°F17.4°C 66% 3.5 mph E5.6 kmh E 11.0 mph17.7 kmh 29.94 in1013.9 mb - 0.00 in0.0 mm 0.00 in0.0 mm
10:15 AM 75.2°F24.0°C 63.1°F17.3°C 66% 5.3 mph S8.5 kmh S 7.0 mph11.3 kmh 29.94 in1013.9 mb - 0.00 in0.0 mm 0.00 in0.0 mm
10:30 AM 75.4°F24.1°C 62.8°F17.1°C 65% 1.7 mph SE2.7 kmh SE 6.0 mph9.7 kmh 29.94 in1013.9 mb - 0.00 in0.0 mm 0.00 in0.0 mm
10:45 AM 76.4°F24.7°C 62.4°F16.9°C 62% 1.8 mph ESE2.9 kmh ESE 5.0 mph8.0 kmh 29.94 in1013.9 mb - 0.00 in0.0 mm 0.00 in0.0 mm
11:00 AM 77.0°F25.0°C 62.0°F16.7°C 60% 2.9 mph E4.7 kmh E 8.0 mph12.9 kmh 29.94 in1013.9 mb - 0.00 in0.0 mm 0.00 in0.0 mm
11:15 AM 77.5°F25.3°C 61.0°F16.1°C 57% 3.7 mph ESE6.0 kmh ESE 8.0 mph12.9 kmh 29.94 in1013.9 mb - 0.00 in0.0 mm 0.00 in0.0 mm
11:30 AM 77.3°F25.2°C 61.9°F16.6°C 59% 4.6 mph SSE7.4 kmh SSE 9.0 mph14.5 kmh 29.94 in1013.9 mb - 0.00 in0.0 mm 0.00 in0.0 mm
11:45 AM 77.4°F25.2°C 62.9°F17.2°C 61% 2.5 mph ESE4.0 kmh ESE 7.0 mph11.3 kmh 29.94 in1013.9 mb - 0.00 in0.0 mm 0.00 in0.0 mm
12:00 PM 76.0°F24.4°C 62.0°F16.7°C 62% 2.1 mph E3.4 kmh E 5.0 mph8.0 kmh 29.94 in1013.9 mb - 0.00 in0.0 mm 0.00 in0.0 mm
12:15 PM 75.3°F24.1°C 63.1°F17.3°C 66% 3.7 mph S6.0 kmh S 8.0 mph12.9 kmh 29.94 in1013.9 mb - 0.00 in0.0 mm 0.00 in0.0 mm
12:30 PM 75.1°F23.9°C 62.1°F16.7°C 64% 3.5 mph SSE5.6 kmh SSE 7.0 mph11.3 kmh 29.93 in1013.5 mb - 0.00 in0.0 mm 0.00 in0.0 mm
12:45 PM 75.2°F24.0°C 62.7°F17.1°C 65% 4.5 mph E7.2 kmh E 14.0 mph22.5 kmh 29.93 in1013.5 mb - 0.00 in0.0 mm 0.00 in0.0 mm
01:00 PM 76.2°F24.6°C 62.2°F16.8°C 62% 4.3 mph SE6.9 kmh SE 5.0 mph8.0 kmh 29.93 in1013.5 mb - 0.00 in0.0 mm 0.00 in0.0 mm
01:15 PM 76.0°F24.4°C 62.0°F16.7°C 62% 3.7 mph SSE6.0 kmh SSE 8.0 mph12.9 kmh 29.93 in1013.5 mb - 0.00 in0.0 mm 0.00 in0.0 mm
01:30 PM 75.8°F24.3°C 61.8°F16.6°C 62% 7.1 mph NE11.4 kmh NE 13.0 mph20.9 kmh 29.93 in1013.5 mb - 0.00 in0.0 mm 0.00 in0.0 mm
01:45 PM 76.0°F24.4°C 61.6°F16.4°C 61% 8.2 mph E13.2 kmh E 12.0 mph19.3 kmh 29.93 in1013.5 mb - 0.00 in0.0 mm 0.00 in0.0 mm
02:00 PM 76.1°F24.5°C 62.5°F16.9°C 63% 1.6 mph ENE2.6 kmh ENE 2.0 mph3.2 kmh 29.93 in1013.5 mb - 0.00 in0.0 mm 0.00 in0.0 mm
02:15 PM 76.4°F24.7°C 62.4°F16.9°C 62% 2.3 mph E3.7 kmh E 9.0 mph14.5 kmh 29.92 in1013.2 mb - 0.00 in0.0 mm 0.00 in0.0 mm
02:30 PM 76.0°F24.4°C 62.0°F16.7°C 62% 8.1 mph ESE13.0 kmh ESE 16.0 mph25.7 kmh 29.92 in1013.2 mb - 0.00 in0.0 mm 0.00 in0.0 mm
02:45 PM 76.0°F24.4°C 62.5°F16.9°C 63% 2.6 mph ESE4.2 kmh ESE 4.0 mph6.4 kmh 29.92 in1013.2 mb - 0.00 in0.0 mm 0.00 in0.0 mm
03:00 PM 75.6°F24.2°C 62.5°F16.9°C 64% 5.7 mph SE9.2 kmh SE 11.0 mph17.7 kmh 29.92 in1013.2 mb - 0.00 in0.0 mm 0.00 in0.0 mm
03:15 PM 75.0°F23.9°C 62.0°F16.7°C 64% 6.6 mph E10.6 kmh E 12.0 mph19.3 kmh 29.92 in1013.2 mb - 0.00 in0.0 mm 0.00 in0.0 mm
03:30 PM 73.5°F23.1°C 61.5°F16.4°C 66% 1.7 mph ESE2.7 kmh ESE 11.0 mph17.7 kmh 29.93 in1013.5 mb - 0.00 in0.0 mm 0.00 in0.0 mm
03:45 PM 72.5°F22.5°C 60.9°F16.1°C 67% 2.5 mph SSE4.0 kmh SSE 7.0 mph11.3 kmh 29.92 in1013.2 mb - 0.00 in0.0 mm 0.00 in0.0 mm
04:00 PM 72.0°F22.2°C 60.9°F16.1°C 68% 5.8 mph ESE9.3 kmh ESE 11.0 mph17.7 kmh 29.92 in1013.2 mb - 0.00 in0.0 mm 0.00 in0.0 mm
04:15 PM 71.2°F21.8°C 60.5°F15.8°C 69% 1.7 mph E2.7 kmh E 4.0 mph6.4 kmh 29.92 in1013.2 mb - 0.00 in0.0 mm 0.00 in0.0 mm
04:30 PM 70.7°F21.5°C 60.4°F15.8°C 70% 3.3 mph N5.3 kmh N 7.0 mph11.3 kmh 29.91 in1012.9 mb - 0.00 in0.0 mm 0.00 in0.0 mm
04:45 PM 70.1°F21.2°C 60.3°F15.7°C 71% 5.7 mph ESE9.2 kmh ESE 9.0 mph14.5 kmh 29.91 in1012.9 mb - 0.00 in0.0 mm 0.00 in0.0 mm
05:00 PM 69.5°F20.8°C 60.1°F15.6°C 72% 3.4 mph ESE5.5 kmh ESE 5.0 mph8.0 kmh 29.91 in1012.9 mb - 0.00 in0.0 mm 0.00 in0.0 mm
05:15 PM 69.0°F20.6°C 60.0°F15.6°C 73% 6.3 mph SSE10.1 kmh SSE 11.0 mph17.7 kmh 29.92 in1013.2 mb - 0.00 in0.0 mm 0.00 in0.0 mm
05:30 PM 68.6°F20.3°C 60.4°F15.8°C 75% 2.4 mph SE3.9 kmh SE 9.0 mph14.5 kmh 29.91 in1012.9 mb - 0.00 in0.0 mm 0.00 in0.0 mm
05:45 PM 68.4°F20.2°C 60.2°F15.7°C 75% 2.9 mph SE4.7 kmh SE 8.0 mph12.9 kmh 29.91 in1012.9 mb - 0.00 in0.0 mm 0.00 in0.0 mm
06:00 PM 68.1°F20.1°C 60.2°F15.7°C 76% Calm Calm -- 29.91 in1012.9 mb - 0.00 in0.0 mm 0.00 in0.0 mm
06:15 PM 67.8°F19.9°C 60.0°F15.6°C 76% 0.2 mph E0.3 kmh E 1.0 mph1.6 kmh 29.91 in1012.9 mb - 0.00 in0.0 mm 0.00 in0.0 mm
06:30 PM 67.6°F19.8°C 59.8°F15.4°C 76% 3.2 mph ESE5.1 kmh ESE 5.0 mph8.0 kmh 29.91 in1012.9 mb - 0.00 in0.0 mm 0.00 in0.0 mm
06:45 PM 67.2°F19.6°C 59.8°F15.4°C 77% 1.2 mph E1.9 kmh E 6.0 mph9.7 kmh 29.91 in1012.9 mb - 0.00 in0.0 mm 0.00 in0.0 mm
07:00 PM 66.8°F19.3°C 59.7°F15.4°C 78% Calm Calm -- 29.91 in1012.9 mb - 0.00 in0.0 mm 0.00 in0.0 mm
07:15 PM 66.3°F19.1°C 59.6°F15.3°C 79% Calm Calm -- 29.90 in1012.5 mb - 0.00 in0.0 mm 0.00 in0.0 mm
07:30 PM 65.8°F18.8°C 59.5°F15.3°C 80% Calm Calm -- 29.90 in1012.5 mb - 0.00 in0.0 mm 0.00 in0.0 mm
07:45 PM 65.4°F18.6°C 59.4°F15.2°C 81% Calm Calm -- 29.91 in1012.9 mb - 0.00 in0.0 mm 0.00 in0.0 mm
08:00 PM 65.1°F18.4°C 59.5°F15.3°C 82% Calm Calm -- 29.91 in1012.9 mb - 0.00 in0.0 mm 0.00 in0.0 mm
08:15 PM 64.9°F18.3°C 59.6°F15.3°C 83% 0.3 mph SSE0.5 kmh SSE 2.0 mph3.2 kmh 29.90 in1012.5 mb - 0.00 in0.0 mm 0.00 in0.0 mm
08:30 PM 64.7°F18.2°C 59.4°F15.2°C 83% Calm Calm -- 29.91 in1012.9 mb - 0.00 in0.0 mm 0.00 in0.0 mm
08:45 PM 64.4°F18.0°C 59.5°F15.3°C 84% Calm Calm -- 29.91 in1012.9 mb - 0.00 in0.0 mm 0.00 in0.0 mm
09:00 PM 64.3°F17.9°C 59.4°F15.2°C 84% Calm Calm -- 29.91 in1012.9 mb - 0.00 in0.0 mm 0.00 in0.0 mm
09:15 PM 64.1°F17.8°C 59.5°F15.3°C 85% Calm Calm -- 29.91 in1012.9 mb - 0.00 in0.0 mm 0.00 in0.0 mm
09:30 PM 63.9°F17.7°C 59.3°F15.2°C 85% Calm Calm -- 29.91 in1012.9 mb - 0.00 in0.0 mm 0.00 in0.0 mm
09:45 PM 63.8°F17.7°C 59.2°F15.1°C 85% Calm Calm -- 29.91 in1012.9 mb - 0.00 in0.0 mm 0.00 in0.0 mm
10:00 PM 63.6°F17.6°C 59.0°F15.0°C 85% Calm Calm -- 29.92 in1013.2 mb - 0.00 in0.0 mm 0.00 in0.0 mm
10:15 PM 63.4°F17.4°C 59.1°F15.1°C 86% Calm Calm -- 29.91 in1012.9 mb - 0.00 in0.0 mm 0.00 in0.0 mm
10:30 PM 63.2°F17.3°C 59.0°F15.0°C 86% Calm Calm -- 29.92 in1013.2 mb - 0.00 in0.0 mm 0.00 in0.0 mm
10:45 PM 63.1°F17.3°C 58.8°F14.9°C 86% Calm Calm -- 29.92 in1013.2 mb - 0.00 in0.0 mm 0.00 in0.0 mm
11:00 PM 63.1°F17.3°C 58.8°F14.9°C 86% Calm Calm -- 29.91 in1012.9 mb - 0.00 in0.0 mm 0.00 in0.0 mm
11:15 PM 63.0°F17.2°C 59.1°F15.1°C 87% Calm Calm -- 29.91 in1012.9 mb - 0.00 in0.0 mm 0.00 in0.0 mm
11:30 PM 62.9°F17.2°C 59.0°F15.0°C 87% Calm Calm -- 29.91 in1012.9 mb - 0.00 in0.0 mm 0.00 in0.0 mm
11:45 PM 62.8°F17.1°C 58.9°F14.9°C 87% Calm Calm -- 29.91 in1012.9 mb - 0.00 in0.0 mm 0.00 in0.0 mm